Time;durP1;ratioP1;P1;durP2;ratioP2;P2;SDS_P1;SDS_P2;PMS_P1;PMS_P2;Temp;Humidity;BMP_temperature;BMP_pressure;BME280_temperature;BME280_humidity;BME280_pressure;Samples;Min_cycle;Max_cycle;Signal;HPM_P1;HPM_P2
2020/12/29 00:01:44;;;;;;;5.13;2.20;;;1.80;82.50;;;-0.38;84.80;92896.47;4964656;28;20048;-70
2020/12/29 00:04:14;;;;;;;4.65;2.50;;;1.80;82.50;;;-0.39;84.56;92894.91;4974580;28;20041;-69
2020/12/29 00:06:56;;;;;;;47.53;23.55;;;1.70;82.30;;;-0.40;84.87;92905.44;5006299;28;20050;-69
2020/12/29 00:09:24;;;;;;;7.07;4.03;;;1.70;82.40;;;-0.38;84.07;92908.59;4990336;28;20048;-69
2020/12/29 00:11:50;;;;;;;6.38;3.08;;;1.70;82.30;;;-0.39;84.05;92914.75;4972185;28;20407;-69
2020/12/29 00:14:17;;;;;;;4.72;3.00;;;1.80;82.10;;;-0.40;83.82;92928.66;4980742;28;20040;-69
2020/12/29 00:16:43;;;;;;;6.90;2.72;;;1.80;81.90;;;-0.38;83.70;92931.84;4990499;28;20112;-68
2020/12/29 00:19:09;;;;;;;4.93;2.53;;;1.90;81.90;;;-0.34;84.01;92933.00;5007627;28;20057;-70
2020/12/29 00:21:36;;;;;;;4.57;2.70;;;1.90;81.80;;;-0.35;83.66;92932.22;4991651;28;20037;-70
2020/12/29 00:24:02;;;;;;;5.47;2.67;;;1.90;81.80;;;-0.32;83.47;92936.19;5006322;28;20441;-70
2020/12/29 00:26:27;;;;;;;4.70;2.40;;;2.00;81.50;;;-0.30;83.59;92939.34;4997549;28;20038;-69
2020/12/29 00:28:53;;;;;;;5.32;2.50;;;2.00;81.40;;;-0.30;83.62;92936.78;5006490;28;20034;-69
2020/12/29 00:31:20;;;;;;;4.10;2.40;;;2.00;81.30;;;-0.28;83.50;92942.53;4990722;28;20037;-69
2020/12/29 00:33:49;;;;;;;3.97;2.15;;;2.00;81.10;;;-0.28;83.77;92945.13;4971867;28;20034;-70
2020/12/29 00:36:16;;;;;;;5.97;2.38;;;2.00;81.20;;;-0.27;83.45;92944.13;4974597;28;20026;-69
2020/12/29 00:38:42;;;;;;;4.60;2.38;;;2.10;81.30;;;-0.26;83.15;92945.72;4987913;28;20042;-69
2020/12/29 00:41:11;;;;;;;3.78;2.05;;;2.10;81.00;;;-0.26;84.00;92950.09;4970917;28;20138;-69
2020/12/29 00:43:37;;;;;;;3.90;2.40;;;2.00;81.10;;;-0.28;83.26;92946.91;4971758;28;20040;-69
2020/12/29 00:46:07;;;;;;;6.05;2.83;;;2.00;80.90;;;-0.30;83.64;92949.69;4973678;28;20046;-69
2020/12/29 00:48:34;;;;;;;4.03;2.40;;;2.00;81.10;;;-0.30;83.77;92954.84;4993432;28;20080;-69
2020/12/29 00:51:14;;;;;;;19.08;6.90;;;2.00;81.00;;;-0.34;83.90;92956.25;4992096;28;20145;-69
2020/12/29 00:53:40;;;;;;;18.97;7.13;;;2.00;81.00;;;-0.35;83.65;92957.25;4964307;28;20133;-69
2020/12/29 00:56:07;;;;;;;19.45;7.00;;;1.90;81.30;;;-0.37;83.71;92959.25;4973144;28;20042;-68
2020/12/29 00:58:32;;;;;;;17.92;6.82;;;2.00;81.40;;;-0.39;84.16;92968.97;4973871;28;20027;-69
2020/12/29 01:00:58;;;;;;;13.57;5.28;;;1.90;81.50;;;-0.40;83.68;92975.91;4987999;28;20056;-69
2020/12/29 01:03:24;;;;;;;7.30;3.50;;;1.90;81.50;;;-0.42;83.64;92971.97;4961851;28;20029;-70
2020/12/29 01:05:51;;;;;;;6.75;2.97;;;1.80;81.30;;;-0.40;83.49;92969.97;4973433;28;20046;-70
2020/12/29 01:08:16;;;;;;;9.18;3.80;;;1.90;81.30;;;-0.39;83.43;92981.88;4989341;28;20041;-70
2020/12/29 01:10:43;;;;;;;9.80;3.65;;;2.00;81.50;;;-0.39;83.72;92987.03;4974194;28;20038;-70
2020/12/29 01:13:12;;;;;;;7.93;4.03;;;2.00;81.20;;;-0.37;83.66;92988.44;4992739;28;20042;-70
2020/12/29 01:15:39;;;;;;;12.40;4.53;;;2.00;81.10;;;-0.36;83.55;92989.22;4977194;28;20037;-70
2020/12/29 01:18:04;;;;;;;6.40;3.65;;;1.90;80.70;;;-0.36;83.11;92996.97;4972076;28;20124;-72
2020/12/29 01:20:30;;;;;;;8.25;3.53;;;1.90;81.00;;;-0.35;83.22;93014.06;4989223;28;20034;-70
2020/12/29 01:22:56;;;;;;;10.18;3.42;;;1.90;80.90;;;-0.35;83.41;93003.72;4973010;28;20062;-70
2020/12/29 01:25:22;;;;;;;6.13;3.03;;;1.90;81.20;;;-0.36;83.52;93002.94;5020120;28;20041;-69
2020/12/29 01:27:48;;;;;;;5.45;2.80;;;1.90;81.40;;;-0.37;83.27;92995.38;5008097;28;20052;-70
2020/12/29 01:30:14;;;;;;;5.45;2.70;;;1.90;81.50;;;-0.35;83.52;92995.97;4976361;28;20366;-70
2020/12/29 01:32:40;;;;;;;8.13;2.78;;;2.00;81.50;;;-0.33;83.49;93001.72;4981322;28;20035;-70
2020/12/29 01:35:06;;;;;;;4.88;2.78;;;2.00;81.20;;;-0.30;83.46;93006.50;4973074;28;20048;-70
2020/12/29 01:37:35;;;;;;;5.07;2.53;;;2.10;81.20;;;-0.29;83.47;93000.34;4991704;28;20037;-70
2020/12/29 01:40:03;;;;;;;4.65;2.60;;;2.10;81.00;;;-0.24;83.37;93002.31;4975088;28;20038;-70
2020/12/29 01:42:28;;;;;;;4.72;2.72;;;2.10;81.00;;;-0.22;83.33;93014.06;4976305;28;20030;-70
2020/12/29 01:44:54;;;;;;;5.60;2.90;;;2.10;81.20;;;-0.25;83.31;93014.44;4975809;28;20656;-70
2020/12/29 01:47:21;;;;;;;6.25;3.00;;;2.00;81.30;;;-0.24;83.68;93013.44;4975298;28;20180;-70
2020/12/29 01:49:48;;;;;;;6.05;3.28;;;2.00;81.70;;;-0.25;83.40;93009.28;4977082;28;20038;-69
2020/12/29 01:52:14;;;;;;;5.93;3.17;;;2.10;81.60;;;-0.24;83.48;93000.53;4956293;28;20058;-70
2020/12/29 01:54:40;;;;;;;4.47;2.88;;;2.10;81.60;;;-0.22;83.87;93003.72;4972649;28;20343;-70
2020/12/29 01:57:06;;;;;;;5.07;2.92;;;2.10;81.60;;;-0.22;84.06;92998.56;4956533;28;20034;-70
2020/12/29 01:59:32;;;;;;;5.38;2.88;;;2.10;81.50;;;-0.21;83.86;93000.16;4956593;28;20064;-70
2020/12/29 02:01:58;;;;;;;6.10;3.13;;;2.10;81.50;;;-0.20;83.51;92978.50;4956425;28;20065;-71
2020/12/29 02:04:23;;;;;;;4.50;2.70;;;2.10;81.50;;;-0.24;84.17;92959.22;4939173;28;20035;-71
2020/12/29 02:06:49;;;;;;;5.32;3.00;;;2.00;81.60;;;-0.25;83.42;92967.94;4952531;28;20422;-71
2020/12/29 02:09:15;;;;;;;6.05;3.45;;;2.10;81.50;;;-0.23;83.57;92981.47;4983279;28;20026;-70
2020/12/29 02:11:41;;;;;;;5.60;2.95;;;2.10;81.20;;;-0.25;83.27;92987.81;4939954;28;20038;-70
2020/12/29 02:14:08;;;;;;;5.63;3.10;;;2.10;80.80;;;-0.24;83.44;92995.38;4971394;28;20146;-69
2020/12/29 02:16:38;;;;;;;4.43;2.90;;;2.10;81.10;;;-0.26;83.79;93010.25;4957009;28;20026;-70
2020/12/29 02:19:07;;;;;;;5.60;3.00;;;2.00;81.00;;;-0.27;83.88;93021.59;4971616;28;20038;-70
2020/12/29 02:21:33;;;;;;;5.63;2.90;;;1.90;81.10;;;-0.28;83.55;93025.16;4940213;28;20053;-70
2020/12/29 02:24:00;;;;;;;4.95;3.20;;;1.90;81.30;;;-0.29;83.52;93033.91;4936129;28;20097;-70
2020/12/29 02:26:26;;;;;;;4.82;2.80;;;2.00;81.30;;;-0.29;83.47;93031.31;4971280;28;20034;-71
2020/12/29 02:28:56;;;;;;;7.30;3.53;;;2.00;81.30;;;-0.27;83.88;93020.78;4971668;28;20038;-71
2020/12/29 02:31:22;;;;;;;7.43;4.57;;;2.00;81.30;;;-0.27;83.20;93044.81;4941084;28;20042;-71
2020/12/29 02:33:48;;;;;;;8.63;5.03;;;2.00;81.20;;;-0.29;83.54;93043.44;4987795;28;20066;-69
2020/12/29 02:36:14;;;;;;;8.02;5.13;;;2.00;81.40;;;-0.32;83.59;93058.34;4952251;28;20134;-69
2020/12/29 02:38:39;;;;;;;6.57;4.15;;;1.90;81.40;;;-0.33;83.48;93055.97;4979921;28;20122;-70
2020/12/29 02:41:05;;;;;;;7.10;3.97;;;1.90;80.90;;;-0.34;83.37;93056.94;4971436;28;20125;-69
2020/12/29 02:43:32;;;;;;;7.30;4.03;;;1.80;80.80;;;-0.32;83.19;93073.03;4955849;28;20065;-70
2020/12/29 02:45:57;;;;;;;6.68;3.70;;;1.90;80.90;;;-0.29;82.97;93095.09;4970825;28;20675;-70
2020/12/29 02:48:23;;;;;;;5.57;3.45;;;2.00;80.80;;;-0.32;83.11;93091.13;4967557;28;20066;-70
2020/12/29 02:50:49;;;;;;;6.60;3.40;;;2.00;80.60;;;-0.30;83.28;93094.28;4975209;28;20393;-69
2020/12/29 02:53:15;;;;;;;4.80;2.63;;;2.00;80.30;;;-0.29;83.05;93093.31;4962540;28;20066;-70
2020/12/29 02:55:42;;;;;;;6.25;2.72;;;2.00;80.20;;;-0.27;83.13;93083.56;4988490;28;20068;-68
2020/12/29 02:58:08;;;;;;;5.68;2.50;;;2.00;80.50;;;-0.24;83.14;93064.28;4965968;28;20057;-68
2020/12/29 03:00:35;;;;;;;6.03;2.47;;;2.00;80.30;;;-0.23;83.15;93074.44;5003769;28;20030;-68
2020/12/29 03:03:00;;;;;;;5.22;2.90;;;2.10;80.00;;;-0.22;82.87;93073.47;4985833;28;20092;-68
2020/12/29 03:05:26;;;;;;;7.45;2.90;;;2.10;79.70;;;-0.19;82.78;93080.03;4973058;28;20634;-69
2020/12/29 03:07:52;;;;;;;7.03;2.15;;;2.10;79.10;;;-0.17;82.58;93067.69;4974155;28;20030;-67
2020/12/29 03:10:18;;;;;;;3.35;2.15;;;2.10;78.60;;;-0.14;82.38;93062.94;5006246;28;20567;-68
2020/12/29 03:12:43;;;;;;;3.92;2.15;;;2.20;78.90;;;-0.11;82.50;93059.94;4967761;28;20034;-69
2020/12/29 03:15:09;;;;;;;4.95;2.33;;;2.10;78.90;;;-0.08;82.33;93051.00;4967489;28;20141;-68
2020/12/29 03:17:35;;;;;;;5.13;2.08;;;2.20;78.60;;;-0.04;82.57;93063.31;4990543;28;20089;-68
2020/12/29 03:20:05;;;;;;;7.15;3.38;;;2.20;78.50;;;-0.04;82.09;93063.31;4956891;28;20041;-68
2020/12/29 03:22:32;;;;;;;7.22;2.95;;;2.30;78.30;;;0.01;82.13;93067.13;4974403;28;20030;-68
2020/12/29 03:24:58;;;;;;;2.80;1.30;;;2.30;78.40;;;0.01;81.84;93061.94;4974718;28;20129;-68
2020/12/29 03:27:24;;;;;;;2.42;1.38;;;2.30;77.00;;;0.01;81.53;93078.25;4974359;28;20469;-68
2020/12/29 03:29:49;;;;;;;3.58;1.63;;;2.20;77.60;;;0.02;81.74;93079.03;4971294;28;20076;-68
2020/12/29 03:32:15;;;;;;;4.72;2.13;;;2.20;77.60;;;0.01;82.13;93083.41;4985601;28;20140;-69
2020/12/29 03:34:41;;;;;;;5.25;2.28;;;2.20;78.10;;;-0.01;81.51;93091.34;4966599;28;20034;-68
2020/12/29 03:37:08;;;;;;;4.95;1.80;;;2.20;77.50;;;0.01;81.63;93103.28;4976872;28;20030;-68
2020/12/29 03:39:35;;;;;;;4.13;1.83;;;2.20;77.70;;;-0.02;81.29;93107.81;4974591;28;20038;-68
2020/12/29 03:42:01;;;;;;;1.70;1.08;;;2.20;77.70;;;-0.02;81.59;93123.31;4958762;28;20027;-67
2020/12/29 03:44:26;;;;;;;3.38;1.50;;;2.10;77.90;;;-0.04;81.38;93127.91;4993001;28;20073;-69
2020/12/29 03:46:53;;;;;;;2.40;1.40;;;2.10;78.30;;;-0.03;81.47;93126.91;4993397;28;20130;-69
2020/12/29 03:49:19;;;;;;;3.40;1.55;;;2.20;78.40;;;-0.02;81.71;93132.88;4981426;28;20088;-69
2020/12/29 03:51:45;;;;;;;3.72;1.58;;;2.20;78.50;;;-0.04;81.68;93140.03;4993483;28;20505;-68
2020/12/29 03:54:11;;;;;;;3.15;1.50;;;2.10;78.40;;;-0.05;81.79;93139.22;4975201;28;20038;-67
2020/12/29 03:56:37;;;;;;;4.47;1.92;;;2.10;78.70;;;-0.08;81.47;93139.63;4993064;28;20366;-68
2020/12/29 03:59:03;;;;;;;3.17;1.60;;;2.10;78.80;;;-0.12;81.52;93130.69;4952409;28;20258;-68
2020/12/29 04:01:28;;;;;;;2.85;1.63;;;2.00;79.10;;;-0.13;81.60;93141.22;4974238;28;20045;-69
2020/12/29 04:03:54;;;;;;;2.95;1.45;;;2.00;79.40;;;-0.16;81.46;93137.22;4957527;28;20042;-68
2020/12/29 04:06:20;;;;;;;3.15;1.60;;;2.00;79.20;;;-0.15;81.92;93138.03;4956591;28;20550;-68
2020/12/29 04:08:46;;;;;;;3.70;1.50;;;2.00;79.50;;;-0.17;81.62;93140.81;4956006;28;20093;-68
2020/12/29 04:11:12;;;;;;;3.08;1.63;;;2.00;79.60;;;-0.17;82.01;93151.13;4954105;28;20039;-68
2020/12/29 04:13:38;;;;;;;2.25;1.35;;;2.00;79.30;;;-0.18;82.00;93141.00;4959201;28;20045;-69
2020/12/29 04:16:03;;;;;;;3.55;1.60;;;1.90;79.60;;;-0.21;81.90;93125.91;4973144;28;20112;-67
2020/12/29 04:18:29;;;;;;;2.10;1.17;;;2.00;79.60;;;-0.18;82.07;93128.88;4957348;28;20069;-69
2020/12/29 04:20:55;;;;;;;2.67;1.20;;;2.00;79.60;;;-0.16;82.00;93141.59;4969768;28;20034;-68
2020/12/29 04:23:21;;;;;;;6.15;1.48;;;2.10;79.50;;;-0.18;82.08;93128.88;4940670;28;20121;-69
2020/12/29 04:25:46;;;;;;;4.93;1.70;;;2.00;79.60;;;-0.16;82.01;93137.22;4953701;28;20113;-68
2020/12/29 04:28:12;;;;;;;3.35;1.63;;;2.10;79.50;;;-0.15;82.14;93130.28;4953404;28;20713;-68
2020/12/29 04:30:38;;;;;;;2.83;1.25;;;2.10;79.40;;;-0.15;81.38;93141.41;4969906;28;20525;-68
2020/12/29 04:33:04;;;;;;;2.38;0.95;;;2.10;79.50;;;-0.13;82.01;93136.03;4981315;28;20454;-68
2020/12/29 04:35:29;;;;;;;3.00;1.20;;;2.20;79.40;;;-0.11;82.11;93140.03;4989218;28;20449;-68
2020/12/29 04:37:55;;;;;;;3.50;0.98;;;2.20;79.30;;;-0.11;82.22;93152.13;4972753;28;20104;-68
2020/12/29 04:40:21;;;;;;;2.45;1.00;;;2.20;79.10;;;-0.11;81.78;93159.88;4956226;28;20065;-68
2020/12/29 04:42:47;;;;;;;2.53;0.80;;;2.20;79.20;;;-0.12;81.65;93166.03;4956264;28;20073;-68
2020/12/29 04:45:13;;;;;;;1.67;0.93;;;2.10;79.10;;;-0.12;81.83;93166.84;4956375;28;20129;-68
2020/12/29 04:47:38;;;;;;;2.80;1.00;;;2.10;79.20;;;-0.11;81.94;93162.47;4972843;28;20041;-69
2020/12/29 04:50:04;;;;;;;2.97;1.05;;;2.10;79.20;;;-0.11;81.80;93176.19;4956062;28;20451;-69
2020/12/29 04:52:30;;;;;;;1.70;0.90;;;2.10;79.40;;;-0.11;82.10;93173.59;4956651;28;20471;-68
2020/12/29 04:54:56;;;;;;;4.07;1.10;;;2.10;79.40;;;-0.10;82.09;93189.88;4969787;28;20516;-68
2020/12/29 04:57:25;;;;;;;1.98;0.95;;;2.10;79.40;;;-0.09;82.42;93181.16;4937594;28;20138;-67
2020/12/29 04:59:51;;;;;;;1.75;0.80;;;2.10;79.30;;;-0.10;82.05;93182.13;4966233;28;20050;-68
2020/12/29 05:02:17;;;;;;;2.28;0.90;;;2.10;79.40;;;-0.09;82.04;93179.34;4952927;28;20035;-68
2020/12/29 05:04:43;;;;;;;2.58;1.00;;;2.10;79.50;;;-0.10;81.93;93193.28;4971412;28;20404;-68
2020/12/29 05:07:09;;;;;;;4.80;1.10;;;2.10;79.30;;;-0.11;81.86;93208.97;4940095;28;20108;-67
2020/12/29 05:09:35;;;;;;;2.08;0.98;;;2.00;79.40;;;-0.14;82.08;93217.91;4956079;28;20121;-67
2020/12/29 05:12:00;;;;;;;2.28;1.02;;;2.10;79.50;;;-0.11;81.70;93222.69;4968672;28;20082;-68
2020/12/29 05:14:28;;;;;;;1.40;0.60;;;2.10;79.40;;;-0.11;82.23;93220.09;4972139;28;20030;-68
2020/12/29 05:16:54;;;;;;;1.95;0.95;;;2.10;79.40;;;-0.11;82.20;93217.50;4940816;28;20065;-68
2020/12/29 05:19:21;;;;;;;2.17;0.85;;;2.10;79.60;;;-0.13;81.75;93219.50;4939985;28;20030;-68
2020/12/29 05:21:47;;;;;;;2.60;0.80;;;2.00;79.40;;;-0.12;81.70;93220.28;4972410;28;20049;-68
2020/12/29 05:24:15;;;;;;;1.70;0.85;;;2.00;79.50;;;-0.10;81.92;93228.63;4971506;28;20038;-68
2020/12/29 05:26:43;;;;;;;1.95;1.00;;;2.10;79.40;;;-0.08;81.80;93235.19;4956837;28;20034;-68
2020/12/29 05:29:13;;;;;;;3.72;1.08;;;2.10;79.40;;;-0.06;81.65;93222.09;4972885;28;20027;-67
2020/12/29 05:31:45;;;;;;;2.67;1.33;;;2.10;79.20;;;-0.08;81.92;93242.94;4953952;28;20034;-69
2020/12/29 05:34:21;;;;;;;4.43;1.70;;;2.10;79.30;;;-0.06;82.02;93245.34;4953232;28;20089;-68
2020/12/29 05:36:47;;;;;;;4.07;1.20;;;2.10;79.40;;;-0.04;81.63;93244.16;4972268;28;20125;-68
2020/12/29 05:39:13;;;;;;;2.80;0.93;;;2.10;79.30;;;-0.03;81.40;93250.91;4968314;28;20113;-68
2020/12/29 05:41:44;;;;;;;3.13;1.00;;;2.10;79.00;;;-0.03;81.58;93250.91;4987864;28;20169;-69
2020/12/29 05:44:22;;;;;;;2.40;0.98;;;2.10;78.70;;;0.01;81.47;93261.69;4967952;28;20034;-68
2020/12/29 05:46:48;;;;;;;1.83;0.90;;;2.10;78.70;;;0.02;81.65;93257.31;4957134;28;20030;-69
2020/12/29 05:49:17;;;;;;;2.53;0.80;;;2.20;78.50;;;0.03;81.24;93269.22;4939170;28;20047;-68
2020/12/29 05:51:43;;;;;;;3.53;1.13;;;2.20;78.40;;;0.06;81.48;93263.66;4977853;28;20182;-69
2020/12/29 05:54:09;;;;;;;1.65;1.00;;;2.30;78.40;;;0.09;81.67;93258.09;4971064;28;20125;-68
2020/12/29 05:56:35;;;;;;;2.35;0.93;;;2.30;78.40;;;0.10;81.52;93264.88;4972338;28;20058;-68
2020/12/29 05:59:02;;;;;;;1.27;0.77;;;2.30;78.10;;;0.12;81.36;93268.06;4987730;28;20121;-69
2020/12/29 06:01:39;;;;;;;2.08;1.02;;;2.30;78.00;;;0.14;81.24;93271.22;4989774;28;20041;-69
2020/12/29 06:04:05;;;;;;;1.45;0.70;;;2.40;78.00;;;0.14;81.48;93279.78;4987573;28;20521;-68
2020/12/29 06:06:36;;;;;;;1.85;0.70;;;2.40;77.60;;;0.16;80.88;93279.59;4974786;28;20057;-69
2020/12/29 06:09:13;;;;;;;1.60;0.82;;;2.30;77.60;;;0.18;80.84;93293.09;4971046;28;20117;-68
2020/12/29 06:11:48;;;;;;;1.55;0.60;;;2.40;77.50;;;0.19;80.80;93305.84;4989916;28;20038;-68
2020/12/29 06:14:24;;;;;;;8.73;4.05;;;2.30;77.40;;;0.19;81.02;93307.63;5007341;28;20053;-68
2020/12/29 06:16:50;;;;;;;40.25;20.70;;;2.40;77.90;;;0.20;81.15;93297.09;4959626;28;20037;-69
2020/12/29 06:19:31;;;;;;;3.10;1.63;;;2.40;78.10;;;0.21;80.88;93297.88;4971143;28;20038;-68
2020/12/29 06:22:10;;;;;;;1.20;0.73;;;2.40;77.70;;;0.20;81.11;93301.47;4988106;28;20042;-69
2020/12/29 06:24:45;;;;;;;4.57;0.85;;;2.40;77.70;;;0.18;80.60;93293.09;4990089;28;20136;-69
2020/12/29 06:27:12;;;;;;;2.65;1.65;;;2.40;77.50;;;0.19;80.58;93300.66;4975042;28;20032;-69
2020/12/29 06:29:43;;;;;;;3.60;1.45;;;2.30;77.40;;;0.20;80.58;93304.03;5006414;28;20053;-68
2020/12/29 06:32:13;;;;;;;2.35;1.70;;;2.40;77.30;;;0.20;80.79;93311.81;4970776;28;20355;-69
2020/12/29 06:34:40;;;;;;;2.13;1.60;;;2.40;77.30;;;0.20;80.56;93316.97;4999403;28;20472;-68
2020/12/29 06:37:12;;;;;;;1.63;0.93;;;2.30;77.40;;;0.17;80.87;93331.06;5006539;28;20065;-69
2020/12/29 06:39:40;;;;;;;1.77;0.73;;;2.30;77.30;;;0.18;80.13;93326.72;4972037;28;20422;-69
2020/12/29 06:42:07;;;;;;;3.95;0.70;;;2.30;76.40;;;0.18;80.03;93334.47;4970887;28;20121;-69
2020/12/29 06:44:34;;;;;;;1.30;0.60;;;2.30;76.40;;;0.19;80.12;93326.50;4969091;28;20032;-69
2020/12/29 06:47:08;;;;;;;3.15;1.17;;;2.40;76.50;;;0.21;79.69;93334.88;5006465;28;20050;-68
2020/12/29 06:49:34;;;;;;;2.97;1.30;;;2.40;76.20;;;0.23;79.62;93342.44;4971770;28;20506;-69
2020/12/29 06:52:32;;;;;;;2.67;1.08;;;2.40;74.70;;;0.23;78.87;93353.59;4970900;28;20068;-68
2020/12/29 06:55:01;;;;;;;2.20;0.90;;;2.30;75.10;;;0.23;79.50;93350.22;4992184;28;20034;-67
2020/12/29 06:57:36;;;;;;;4.07;1.83;;;2.40;75.20;;;0.20;79.21;93348.78;4988597;28;20089;-67
2020/12/29 07:00:23;;;;;;;1.35;0.45;;;2.30;74.70;;;0.24;77.67;93355.19;5004595;28;20049;-66
2020/12/29 07:02:51;;;;;;;0.80;0.50;;;2.30;74.10;;;0.25;78.98;93361.94;5023854;28;20135;-66
2020/12/29 07:05:24;;;;;;;0.90;0.55;;;2.30;73.50;;;0.29;77.88;93362.34;5005160;28;20033;-68
2020/12/29 07:07:54;;;;;;;1.17;0.40;;;2.40;73.00;;;0.33;78.78;93366.13;4982962;28;20092;-69
2020/12/29 07:10:20;;;;;;;1.10;0.40;;;2.40;72.60;;;0.37;78.52;93376.88;4999410;28;20057;-67
2020/12/29 07:12:50;;;;;;;1.92;0.60;;;2.40;72.40;;;0.41;77.81;93383.25;4987031;28;20081;-67
2020/12/29 07:15:25;;;;;;;1.10;0.43;;;2.60;72.10;;;0.48;76.27;93377.13;4979383;28;20026;-70
2020/12/29 07:18:02;;;;;;;1.00;0.50;;;2.60;71.00;;;0.57;76.19;93380.34;5017752;28;20087;-67
2020/12/29 07:20:33;;;;;;;1.17;0.50;;;2.70;70.30;;;0.67;75.53;93385.13;5002801;28;20132;-67
2020/12/29 07:23:09;;;;;;;1.95;0.80;;;2.80;68.70;;;0.80;74.97;93385.16;4993080;28;20047;-67
2020/12/29 07:25:36;;;;;;;1.08;0.50;;;3.00;67.70;;;0.93;75.56;93399.94;4958603;28;20034;-67
2020/12/29 07:28:06;;;;;;;1.75;0.60;;;3.10;66.80;;;1.07;74.52;93401.53;4996610;28;20136;-68
2020/12/29 07:30:33;;;;;;;1.60;0.57;;;3.20;66.20;;;1.18;75.72;93409.53;4991789;28;20524;-67
2020/12/29 07:33:01;;;;;;;1.10;0.77;;;3.40;66.20;;;1.29;74.72;93396.97;5009909;28;20061;-67
2020/12/29 07:35:29;;;;;;;1.90;0.80;;;3.50;64.70;;;1.37;74.07;93407.16;4962021;28;20561;-68
2020/12/29 07:37:56;;;;;;;3.65;0.93;;;3.50;64.60;;;1.49;74.08;93410.72;4969626;28;20046;-68
2020/12/29 07:40:26;;;;;;;2.95;0.70;;;3.60;64.00;;;1.57;73.61;93410.53;4965674;28;20101;-68
2020/12/29 07:42:52;;;;;;;1.80;0.80;;;3.70;62.90;;;1.67;73.61;93413.53;4939101;28;20031;-68
2020/12/29 07:45:18;;;;;;;0.50;0.40;;;3.80;63.40;;;1.77;73.50;93429.44;4951486;28;20081;-67
2020/12/29 07:47:44;;;;;;;1.33;0.38;;;3.90;62.70;;;1.86;73.24;93421.50;4957253;28;20034;-68
2020/12/29 07:50:10;;;;;;;2.30;0.50;;;3.90;62.20;;;1.92;73.20;93425.84;4972194;28;20454;-68
2020/12/29 07:52:35;;;;;;;4.32;1.63;;;4.00;62.20;;;1.98;73.21;93419.84;4941712;28;20402;-65
2020/12/29 07:55:15;;;;;;;1.13;0.45;;;4.10;61.90;;;2.04;69.37;93429.44;4968251;28;20530;-67
2020/12/29 07:57:42;;;;;;;0.63;0.32;;;4.10;61.50;;;2.08;72.77;93425.44;4938493;28;20526;-67
2020/12/29 08:00:13;;;;;;;2.38;0.63;;;4.10;61.40;;;2.12;70.47;93426.63;4956326;28;20126;-66
2020/12/29 08:02:39;;;;;;;0.77;0.40;;;4.10;61.60;;;2.12;71.98;93431.81;4953693;28;20035;-68
2020/12/29 08:05:06;;;;;;;1.20;0.50;;;4.20;61.00;;;2.21;71.60;93448.72;4941151;28;20082;-69
2020/12/29 08:07:31;;;;;;;0.73;0.40;;;4.30;60.80;;;2.28;71.68;93457.31;4941317;28;20034;-67
2020/12/29 08:09:57;;;;;;;0.70;0.50;;;4.40;60.60;;;2.36;71.66;93464.06;4957132;28;20038;-70
2020/12/29 08:12:23;;;;;;;0.75;0.40;;;4.50;60.80;;;2.43;71.71;93460.44;4988549;28;20113;-69
2020/12/29 08:14:49;;;;;;;1.58;0.40;;;4.60;60.20;;;2.45;71.34;93458.44;4953360;28;20046;-68
2020/12/29 08:17:14;;;;;;;1.23;0.50;;;4.60;59.70;;;2.56;70.42;93475.19;4967158;28;20085;-68
2020/12/29 08:19:40;;;;;;;0.57;0.40;;;4.60;59.40;;;2.63;70.80;93480.34;4988914;28;20039;-68
2020/12/29 08:22:10;;;;;;;1.38;0.50;;;4.60;59.40;;;2.68;68.75;93494.31;4972498;28;20058;-68
2020/12/29 08:24:41;;;;;;;1.35;0.60;;;4.70;59.20;;;2.73;69.93;93507.50;4989090;28;20101;-68
2020/12/29 08:27:07;;;;;;;1.90;0.90;;;4.80;59.30;;;2.79;70.25;93500.69;4990433;28;20061;-69
2020/12/29 08:29:33;;;;;;;1.50;0.70;;;4.90;59.30;;;2.84;69.86;93508.63;4988730;28;20208;-69
2020/12/29 08:32:08;;;;;;;1.23;0.60;;;4.90;59.20;;;2.88;66.58;93504.63;4969548;28;20043;-69
2020/12/29 08:34:34;;;;;;;3.75;1.15;;;4.90;59.10;;;2.92;69.92;93516.19;4969091;28;20027;-69
2020/12/29 08:37:01;;;;;;;2.15;1.10;;;5.00;59.50;;;2.98;69.42;93510.19;4952722;28;20105;-69
2020/12/29 08:39:37;;;;;;;3.05;0.65;;;5.00;58.60;;;2.98;67.61;93520.59;4972545;28;20121;-66
2020/12/29 08:42:03;;;;;;;4.45;1.40;;;5.10;58.50;;;3.02;69.83;93534.75;4941623;28;20034;-68
2020/12/29 08:44:30;;;;;;;2.03;0.68;;;5.00;59.60;;;3.05;69.07;93523.94;4972788;28;20049;-68
2020/12/29 08:46:56;;;;;;;1.90;0.90;;;5.10;59.40;;;3.08;69.69;93531.31;4968714;28;20041;-68
2020/12/29 08:49:29;;;;;;;1.35;0.55;;;5.20;59.80;;;3.12;67.21;93531.69;4961722;28;20058;-69
2020/12/29 08:51:55;;;;;;;1.23;0.60;;;5.30;59.20;;;3.15;69.43;93530.47;4988659;28;20501;-68
2020/12/29 08:54:21;;;;;;;1.45;0.73;;;5.30;59.50;;;3.16;69.40;93539.88;4987371;28;20046;-69
2020/12/29 08:56:46;;;;;;;1.95;0.80;;;5.40;59.20;;;3.17;69.68;93528.47;4968577;28;20154;-68
2020/12/29 08:59:16;;;;;;;1.58;0.70;;;5.30;59.50;;;3.18;68.05;93536.09;4973620;28;20034;-66
2020/12/29 09:01:47;;;;;;;2.00;0.75;;;5.40;59.20;;;3.21;66.83;93548.66;4988170;28;20145;-69
2020/12/29 09:04:29;;;;;;;0.88;0.52;;;5.40;58.20;;;3.27;66.46;93560.00;4936628;28;20034;-69
2020/12/29 09:07:07;;;;;;;;;;;5.40;58.70;;;3.33;66.36;93546.19;4992502;28;20505;-68
2020/12/29 09:09:52;;;;;;;0.88;0.50;;;5.60;58.80;;;3.40;68.43;93565.16;4999643;28;19914;-69
2020/12/29 09:12:19;;;;;;;1.65;0.40;;;5.60;57.70;;;3.52;68.47;93568.69;4953836;28;20054;-66
2020/12/29 09:15:11;;;;;;;6.07;1.73;;;5.80;57.40;;;3.65;66.37;93570.44;4968318;28;20101;-66
2020/12/29 09:17:42;;;;;;;2.15;0.68;;;6.10;57.30;;;3.84;66.50;93581.72;4969831;28;20490;-67
2020/12/29 09:20:23;;;;;;;2.42;0.60;;;6.30;57.40;;;3.97;66.59;93592.03;4968028;28;20050;-68
2020/12/29 09:22:53;;;;;;;2.92;0.60;;;6.30;56.50;;;4.12;67.08;93589.16;4955246;28;20137;-70
2020/12/29 09:25:35;;;;;;;0.75;0.40;;;6.50;56.20;;;4.25;65.51;93574.22;4987330;28;20053;-67
2020/12/29 09:28:20;;;;;;;3.45;0.55;;;6.60;54.90;;;4.43;63.73;93581.31;4986849;28;20153;-67
2020/12/29 09:30:52;;;;;;;1.63;0.43;;;6.90;54.30;;;4.59;65.24;93613.81;4970839;28;20023;-67
2020/12/29 09:33:20;;;;;;;3.20;0.30;;;6.90;54.20;;;4.70;65.96;93618.31;4987970;28;20047;-69
2020/12/29 09:35:47;;;;;;;0.95;0.38;;;6.90;54.30;;;4.78;66.52;93615.47;4956076;28;20430;-67
2020/12/29 09:38:14;;;;;;;0.90;0.40;;;7.00;54.40;;;4.83;66.08;93615.59;4955182;28;20122;-66
2020/12/29 09:40:40;;;;;;;2.45;0.40;;;7.00;54.60;;;4.88;66.05;93620.16;4972357;28;20041;-67
2020/12/29 09:43:05;;;;;;;1.98;0.40;;;7.00;54.20;;;4.92;65.73;93621.31;4956265;28;20042;-67
2020/12/29 09:45:31;;;;;;;3.03;0.68;;;7.10;54.20;;;4.97;66.56;93628.50;4969032;28;20546;-66
2020/12/29 09:47:57;;;;;;;1.63;0.50;;;7.10;53.90;;;4.97;65.31;93623.28;4970539;28;20468;-66
2020/12/29 09:50:22;;;;;;;0.80;0.47;;;6.90;54.00;;;4.95;65.78;93651.34;4982498;28;20126;-66
2020/12/29 09:52:48;;;;;;;1.02;0.30;;;6.80;54.00;;;4.90;65.16;93629.34;4988003;28;20121;-67
2020/12/29 09:55:14;;;;;;;0.95;0.43;;;6.70;54.20;;;4.88;64.71;93654.03;4955900;28;20122;-68
2020/12/29 09:57:40;;;;;;;3.58;0.73;;;6.70;54.50;;;4.89;64.56;93653.81;4971820;28;20157;-69
2020/12/29 10:00:06;;;;;;;2.05;0.40;;;7.00;54.60;;;4.96;64.93;93648.53;4955286;28;20117;-68
2020/12/29 10:02:32;;;;;;;1.13;0.40;;;7.20;53.00;;;5.10;65.16;93655.22;4989871;28;20507;-69
2020/12/29 10:04:58;;;;;;;3.03;1.15;;;7.70;53.20;;;5.29;64.67;93648.22;4955551;28;20043;-69
2020/12/29 10:07:24;;;;;;;2.50;0.68;;;8.20;51.50;;;5.55;64.21;93665.41;4955736;28;20113;-68
2020/12/29 10:09:49;;;;;;;4.63;0.52;;;8.70;50.00;;;5.78;64.86;93660.31;4956227;28;20038;-68
2020/12/29 10:12:15;;;;;;;3.15;0.38;;;8.70;49.70;;;5.92;64.41;93668.81;4970411;28;20027;-69
2020/12/29 10:14:41;;;;;;;1.27;0.40;;;8.90;49.30;;;6.09;64.16;93668.97;4936720;28;20232;-70
2020/12/29 10:17:07;;;;;;;2.03;0.50;;;9.20;48.10;;;6.19;63.96;93668.47;4964486;28;20033;-72
2020/12/29 10:19:33;;;;;;;2.53;0.40;;;9.10;48.30;;;6.21;63.74;93669.03;4991356;28;20121;-71
2020/12/29 10:21:58;;;;;;;3.50;0.50;;;8.70;49.00;;;6.23;63.67;93685.28;4943359;28;20061;-71
2020/12/29 10:24:24;;;;;;;1.90;0.60;;;8.70;48.90;;;6.16;63.72;93674.13;4970649;28;20042;-71
2020/12/29 10:26:51;;;;;;;1.77;0.40;;;8.30;49.70;;;6.06;62.66;93677.25;4939081;28;20125;-71
2020/12/29 10:29:18;;;;;;;1.88;0.70;;;8.20;50.00;;;6.01;62.37;93682.34;4971147;28;20041;-70
2020/12/29 10:31:44;;;;;;;4.38;1.27;;;8.60;49.60;;;6.08;63.32;93683.84;4955576;28;20104;-70
2020/12/29 10:34:13;;;;;;;2.60;1.10;;;9.80;46.50;;;6.27;61.34;93668.16;4965514;28;20058;-70